Time;durP1;ratioP1;P1;durP2;ratioP2;P2;SDS_P1;SDS_P2;PMS_P1;PMS_P2;Temp;Humidity;BMP_temperature;BMP_pressure;BME280_temperature;BME280_humidity;BME280_pressure;Samples;Min_cycle;Max_cycle;Signal;HPM_P1;HPM_P2
2023/01/28 00:01:40;;;;;;;23.10;12.05;;;0.10;99.90;;;;;;4975959;28;20368;-73
2023/01/28 00:04:06;;;;;;;22.60;12.63;;;0.00;99.90;;;;;;4992211;28;20026;-74
2023/01/28 00:06:32;;;;;;;25.50;13.10;;;0.10;99.90;;;;;;4983813;28;20092;-74
2023/01/28 00:08:57;;;;;;;24.63;12.23;;;0.00;99.90;;;;;;4990093;28;20038;-73
2023/01/28 00:11:25;;;;;;;25.60;13.90;;;0.00;99.90;;;;;;4971035;28;20082;-74
2023/01/28 00:13:51;;;;;;;29.42;13.88;;;0.00;99.90;;;;;;4986745;28;20026;-73
2023/01/28 00:16:17;;;;;;;33.30;15.27;;;0.00;99.90;;;;;;4987949;28;20041;-73
2023/01/28 00:18:43;;;;;;;26.65;13.65;;;-0.10;99.90;;;;;;4993307;28;20432;-73
2023/01/28 00:21:11;;;;;;;39.38;16.73;;;0.00;99.90;;;;;;4989844;28;20094;-74
2023/01/28 00:23:38;;;;;;;59.83;22.20;;;-0.10;99.90;;;;;;4992341;28;20451;-75
2023/01/28 00:26:07;;;;;;;34.83;16.17;;;-0.10;99.90;;;;;;4994091;28;20371;-75
2023/01/28 00:28:33;;;;;;;26.00;13.07;;;0.00;99.90;;;;;;4993684;28;20034;-73
2023/01/28 00:31:05;;;;;;;35.05;16.70;;;0.00;99.90;;;;;;4975652;28;20057;-74
2023/01/28 00:33:31;;;;;;;36.22;16.67;;;0.00;99.90;;;;;;4993362;28;20073;-75
2023/01/28 00:35:59;;;;;;;32.25;15.88;;;0.00;99.90;;;;;;4993681;28;20042;-73
2023/01/28 00:38:25;;;;;;;34.95;16.10;;;0.00;99.90;;;;;;4976415;28;20065;-73
2023/01/28 00:40:51;;;;;;;24.00;12.43;;;0.00;99.90;;;;;;4998047;28;20030;-73
2023/01/28 00:43:16;;;;;;;24.80;12.25;;;0.10;99.90;;;;;;4985966;28;20018;-73
2023/01/28 00:45:42;;;;;;;27.92;14.30;;;0.00;99.90;;;;;;4991608;28;20472;-75
2023/01/28 00:48:08;;;;;;;25.88;13.52;;;0.00;99.90;;;;;;4974118;28;20121;-75
2023/01/28 00:50:34;;;;;;;23.52;12.73;;;0.00;99.90;;;;;;4989749;28;20038;-74
2023/01/28 00:53:00;;;;;;;25.15;12.68;;;0.00;99.90;;;;;;4979461;28;20420;-72
2023/01/28 00:55:27;;;;;;;23.98;11.88;;;0.00;99.90;;;;;;4981940;28;20292;-72
2023/01/28 00:57:52;;;;;;;22.67;12.77;;;0.00;99.90;;;;;;4977998;28;20044;-73
2023/01/28 01:00:26;;;;;;;26.98;13.85;;;0.00;99.90;;;;;;4991520;28;20211;-73
2023/01/28 01:02:52;;;;;;;25.48;13.15;;;0.00;99.90;;;;;;4984577;28;20103;-74
2023/01/28 01:05:17;;;;;;;22.00;12.18;;;0.00;99.90;;;;;;4974903;28;20061;-74
2023/01/28 01:07:43;;;;;;;26.38;12.88;;;0.00;99.90;;;;;;4971772;28;20038;-74
2023/01/28 01:10:17;;;;;;;21.55;11.35;;;-0.10;99.90;;;;;;4973611;28;20030;-76
2023/01/28 01:12:46;;;;;;;24.73;11.32;;;-0.10;99.90;;;;;;4989614;28;20038;-76
2023/01/28 01:15:14;;;;;;;22.08;11.90;;;-0.10;99.90;;;;;;4976829;28;20111;-73
2023/01/28 01:17:42;;;;;;;26.98;12.13;;;-0.10;99.90;;;;;;4989642;28;20026;-75
2023/01/28 01:20:15;;;;;;;26.83;11.95;;;-0.10;99.90;;;;;;4974877;28;20033;-73
2023/01/28 01:22:41;;;;;;;24.52;12.13;;;-0.10;99.90;;;;;;4990760;28;20096;-74
2023/01/28 01:25:07;;;;;;;23.85;10.82;;;-0.10;99.90;;;;;;4977590;28;20030;-73
2023/01/28 01:27:33;;;;;;;23.50;10.82;;;-0.10;99.90;;;;;;4976815;28;20038;-74
2023/01/28 01:29:59;;;;;;;26.50;12.70;;;-0.10;99.90;;;;;;4991351;28;20039;-73
2023/01/28 01:32:28;;;;;;;20.42;11.25;;;-0.10;99.90;;;;;;4976995;28;20549;-74
2023/01/28 01:34:54;;;;;;;24.08;11.60;;;-0.10;99.90;;;;;;4992064;28;20134;-74
2023/01/28 01:37:19;;;;;;;25.42;11.63;;;-0.10;99.90;;;;;;4974605;28;20383;-75
2023/01/28 01:39:45;;;;;;;22.23;11.45;;;0.00;99.90;;;;;;4995334;28;20031;-73
2023/01/28 01:42:12;;;;;;;23.83;11.43;;;0.00;99.90;;;;;;4974027;28;20019;-74
2023/01/28 01:44:57;;;;;;;23.02;11.32;;;-0.10;99.90;;;;;;4988535;28;20049;-73
2023/01/28 01:47:37;;;;;;;;;;;0.00;99.90;;;;;;4992159;28;20097;-75
2023/01/28 01:50:11;;;;;;;23.15;12.45;;;-0.10;99.90;;;;;;4985567;28;19913;-75
2023/01/28 01:52:37;;;;;;;21.95;10.68;;;-0.10;99.90;;;;;;4975845;28;20030;-72
2023/01/28 01:55:08;;;;;;;22.10;11.25;;;-0.10;99.90;;;;;;4967644;28;20070;-72
2023/01/28 01:57:35;;;;;;;21.83;10.82;;;-0.10;99.90;;;;;;4975901;28;20030;-73
2023/01/28 02:00:05;;;;;;;23.92;11.60;;;-0.10;99.90;;;;;;4989985;28;20026;-72
2023/01/28 02:02:37;;;;;;;30.33;11.80;;;-0.10;99.90;;;;;;4992999;28;20088;-73
2023/01/28 02:05:03;;;;;;;18.77;10.32;;;-0.10;99.90;;;;;;4991697;28;20096;-75
2023/01/28 02:07:29;;;;;;;21.42;11.02;;;-0.10;99.90;;;;;;4988143;28;20061;-73
2023/01/28 02:09:55;;;;;;;22.80;10.55;;;-0.20;99.90;;;;;;4972488;28;20078;-74
2023/01/28 02:12:26;;;;;;;21.50;11.20;;;-0.10;99.90;;;;;;4976749;28;20052;-72
2023/01/28 02:15:08;;;;;;;22.52;11.15;;;-0.20;99.90;;;;;;4989591;28;20084;-74
2023/01/28 02:17:36;;;;;;;20.50;10.20;;;-0.20;99.90;;;;;;4998280;28;20034;-74
2023/01/28 02:20:08;;;;;;;24.02;10.98;;;-0.20;99.90;;;;;;4979899;28;20049;-75
2023/01/28 02:22:55;;;;;;;23.10;10.82;;;-0.20;99.90;;;;;;4993310;28;20101;-76
2023/01/28 02:25:36;;;;;;;25.92;10.85;;;-0.20;99.90;;;;;;4975247;28;20022;-73
2023/01/28 02:28:13;;;;;;;23.00;11.05;;;-0.20;99.90;;;;;;4993501;28;20142;-76
2023/01/28 02:30:47;;;;;;;21.23;9.95;;;-0.20;99.90;;;;;;4992116;28;20337;-73
2023/01/28 02:33:34;;;;;;;;;;;-0.10;99.90;;;;;;4990782;28;20022;-76
2023/01/28 02:36:08;;;;;;;24.30;9.85;;;-0.10;99.90;;;;;;4989963;28;20286;-75
2023/01/28 02:38:43;;;;;;;22.73;11.13;;;-0.10;99.90;;;;;;4973502;28;20399;-76
2023/01/28 02:41:16;;;;;;;19.88;10.55;;;-0.10;99.90;;;;;;4990415;28;20630;-75
2023/01/28 02:43:44;;;;;;;22.92;9.85;;;-0.10;99.90;;;;;;4991840;28;20027;-75
2023/01/28 02:49:25;;;;;;;22.55;10.35;;;-0.10;99.90;;;;;;4991304;28;20041;-76
2023/01/28 02:53:39;;;;;;;21.67;10.27;;;0.00;99.90;;;;;;4995542;28;20034;-76
2023/01/28 02:55:30;;;;;;;20.15;9.82;;;-0.10;99.90;;;;;;4994445;28;20522;-75
2023/01/28 02:57:56;;;;;;;21.85;10.35;;;-0.10;99.90;;;;;;4992567;23;20073;-77
2023/01/28 03:00:33;;;;;;;23.10;10.38;;;-0.10;99.90;;;;;;4976377;28;20026;-76
2023/01/28 03:03:23;;;;;;;23.17;11.63;;;-0.10;99.90;;;;;;4980176;28;20025;-75
2023/01/28 03:06:05;;;;;;;23.80;10.85;;;-0.10;99.90;;;;;;4956210;28;20117;-76
2023/01/28 03:36:49;;;;;;;19.85;9.70;;;-0.10;99.90;;;;;;4976528;28;20073;-76
2023/01/28 03:39:26;;;;;;;24.77;10.68;;;-0.10;99.90;;;;;;4975800;28;20038;-75
2023/01/28 03:42:06;;;;;;;19.23;10.15;;;-0.10;99.90;;;;;;4977065;28;20027;-75
2023/01/28 03:44:51;;;;;;;19.98;9.45;;;-0.20;99.90;;;;;;4978199;28;20035;-76
2023/01/28 03:47:19;;;;;;;22.40;11.00;;;-0.10;99.90;;;;;;4983235;28;20065;-77
2023/01/28 03:49:50;;;;;;;20.90;9.85;;;-0.10;99.90;;;;;;4954695;28;20447;-76
2023/01/28 03:52:18;;;;;;;22.02;9.98;;;-0.10;99.90;;;;;;4978302;28;20300;-77
2023/01/28 03:54:47;;;;;;;22.65;10.75;;;-0.10;99.90;;;;;;4976511;28;20106;-76
2023/01/28 03:57:14;;;;;;;24.73;10.73;;;-0.10;99.90;;;;;;4974760;28;20372;-76
2023/01/28 03:59:40;;;;;;;20.75;10.40;;;-0.10;99.90;;;;;;4959340;28;20026;-75
2023/01/28 04:02:06;;;;;;;23.48;10.20;;;-0.10;99.90;;;;;;4976622;28;20046;-75
2023/01/28 04:04:32;;;;;;;21.85;10.55;;;-0.10;99.90;;;;;;4954093;29;20019;-75
2023/01/28 04:06:58;;;;;;;19.55;10.43;;;-0.10;99.90;;;;;;4992796;28;20033;-75
2023/01/28 04:09:24;;;;;;;21.73;10.68;;;-0.10;99.90;;;;;;4993248;28;20062;-75
2023/01/28 04:11:51;;;;;;;19.23;9.73;;;0.00;99.90;;;;;;4961014;28;20030;-75
2023/01/28 04:14:17;;;;;;;19.05;9.85;;;0.00;99.90;;;;;;4974009;28;20337;-76
2023/01/28 04:16:44;;;;;;;19.52;9.90;;;0.00;99.90;;;;;;4977174;28;20034;-76
2023/01/28 04:19:11;;;;;;;20.05;10.05;;;0.00;99.90;;;;;;4972841;28;20049;-76
2023/01/28 04:21:37;;;;;;;22.05;11.10;;;0.00;99.90;;;;;;4982159;28;20027;-76
2023/01/28 04:24:03;;;;;;;23.25;10.90;;;0.00;99.90;;;;;;4978932;28;20022;-76
2023/01/28 04:26:29;;;;;;;19.90;9.30;;;0.00;99.90;;;;;;4975594;28;20148;-77
2023/01/28 04:28:55;;;;;;;20.23;9.40;;;0.00;99.90;;;;;;4987831;28;20454;-77
2023/01/28 04:31:22;;;;;;;20.65;9.32;;;0.00;99.90;;;;;;4977316;28;20027;-77
2023/01/28 04:33:48;;;;;;;24.75;10.95;;;0.00;99.90;;;;;;4979102;28;20030;-77
2023/01/28 04:36:14;;;;;;;19.35;10.05;;;0.00;99.90;;;;;;4958762;28;20037;-77
2023/01/28 04:38:40;;;;;;;18.50;9.88;;;0.10;99.90;;;;;;4971931;28;20035;-77
2023/01/28 04:41:06;;;;;;;23.67;9.73;;;0.10;99.90;;;;;;4955212;28;20030;-77
2023/01/28 04:43:31;;;;;;;19.60;9.57;;;0.00;99.90;;;;;;4970735;28;20097;-76
2023/01/28 04:45:57;;;;;;;21.35;9.60;;;0.00;99.90;;;;;;4977077;28;20069;-76
2023/01/28 04:48:22;;;;;;;20.55;10.13;;;0.00;99.90;;;;;;4979278;28;20022;-76
2023/01/28 04:50:48;;;;;;;18.02;9.02;;;0.00;99.90;;;;;;4974472;28;20109;-76
2023/01/28 04:53:14;;;;;;;24.85;9.63;;;0.00;99.90;;;;;;4976590;28;20037;-76
2023/01/28 04:55:39;;;;;;;20.25;9.63;;;0.00;99.90;;;;;;4976631;28;20166;-76
2023/01/28 04:58:05;;;;;;;21.55;10.15;;;0.00;99.90;;;;;;4975970;28;20022;-76
2023/01/28 05:00:31;;;;;;;20.33;9.88;;;-0.10;99.90;;;;;;4973635;28;20161;-75
2023/01/28 05:02:56;;;;;;;20.80;10.18;;;0.00;99.90;;;;;;4975447;28;20471;-76
2023/01/28 05:05:22;;;;;;;21.30;10.18;;;0.00;99.90;;;;;;4978806;28;20027;-76
2023/01/28 05:07:57;;;;;;;18.60;9.45;;;0.00;99.90;;;;;;4958454;28;20033;-77
2023/01/28 05:10:26;;;;;;;19.17;9.20;;;0.00;99.90;;;;;;4959496;28;20069;-77
2023/01/28 05:12:52;;;;;;;22.95;10.48;;;0.00;99.90;;;;;;4986033;28;20109;-76
2023/01/28 05:15:18;;;;;;;18.88;9.48;;;-0.10;99.90;;;;;;4967444;28;20231;-77
2023/01/28 05:17:45;;;;;;;20.58;9.95;;;0.00;99.90;;;;;;4977515;28;20034;-77
2023/01/28 05:20:12;;;;;;;20.52;9.77;;;0.00;99.90;;;;;;4958341;28;20023;-77
2023/01/28 05:22:39;;;;;;;19.13;9.07;;;0.00;99.90;;;;;;4957529;28;20478;-75
2023/01/28 05:25:05;;;;;;;19.98;9.45;;;-0.10;99.90;;;;;;4972562;28;20102;-76
2023/01/28 05:27:31;;;;;;;20.35;9.75;;;-0.10;99.90;;;;;;4974700;28;20042;-76
2023/01/28 05:29:58;;;;;;;18.83;9.50;;;-0.10;99.90;;;;;;4975447;28;20069;-76
2023/01/28 05:32:24;;;;;;;16.40;8.50;;;-0.10;99.90;;;;;;4972636;28;20488;-75
2023/01/28 05:34:50;;;;;;;19.83;9.20;;;-0.10;99.90;;;;;;4969881;28;20323;-77
2023/01/28 05:37:15;;;;;;;19.65;10.27;;;-0.10;99.90;;;;;;4957437;28;20035;-78
2023/01/28 05:39:41;;;;;;;21.30;9.40;;;0.00;99.90;;;;;;4964480;28;20034;-78
2023/01/28 05:42:07;;;;;;;21.23;9.82;;;0.00;99.90;;;;;;4954362;28;20054;-77
2023/01/28 05:44:32;;;;;;;20.15;9.82;;;0.00;99.90;;;;;;4971266;28;20125;-77
2023/01/28 05:46:58;;;;;;;18.45;9.00;;;0.00;99.90;;;;;;4951575;28;20034;-77
2023/01/28 05:49:25;;;;;;;21.02;11.45;;;0.00;99.90;;;;;;4970471;28;20039;-77
2023/01/28 05:51:51;;;;;;;20.10;10.38;;;0.00;99.90;;;;;;4970276;28;20026;-78
2023/01/28 05:54:17;;;;;;;20.02;9.30;;;0.00;99.90;;;;;;4955888;28;20480;-77
2023/01/28 05:56:43;;;;;;;18.65;8.65;;;0.10;99.90;;;;;;4959073;28;20037;-77
2023/01/28 05:59:10;;;;;;;17.42;8.95;;;0.10;99.90;;;;;;4960049;28;20428;-77
2023/01/28 06:01:36;;;;;;;19.35;9.25;;;0.10;99.90;;;;;;4958686;28;20141;-76
2023/01/28 06:04:03;;;;;;;16.92;8.60;;;0.10;99.90;;;;;;4974456;28;20014;-77
2023/01/28 06:06:28;;;;;;;16.63;8.65;;;0.10;99.90;;;;;;4974547;28;20076;-76
2023/01/28 06:08:54;;;;;;;16.75;8.57;;;0.10;99.90;;;;;;4975507;28;20517;-76
2023/01/28 06:11:20;;;;;;;18.02;9.13;;;0.10;99.90;;;;;;4973413;28;20057;-75
2023/01/28 06:13:45;;;;;;;20.15;8.90;;;0.10;99.90;;;;;;4973105;28;20431;-76
2023/01/28 06:16:11;;;;;;;18.00;9.40;;;0.10;99.90;;;;;;4971113;28;20113;-72
2023/01/28 06:18:37;;;;;;;18.33;8.93;;;0.10;99.90;;;;;;4969759;28;20039;-72
2023/01/28 06:21:03;;;;;;;19.73;9.38;;;0.10;99.90;;;;;;4955967;28;20149;-72
2023/01/28 06:23:28;;;;;;;21.13;9.18;;;0.10;99.90;;;;;;4970844;28;20538;-72
2023/01/28 06:25:55;;;;;;;21.17;9.93;;;0.20;99.90;;;;;;4965958;28;20019;-72
2023/01/28 06:28:21;;;;;;;21.45;8.80;;;0.20;99.90;;;;;;4977236;28;20332;-72
2023/01/28 06:30:51;;;;;;;18.23;8.63;;;0.20;99.90;;;;;;4972456;28;20046;-78
2023/01/28 06:33:17;;;;;;;19.83;8.90;;;0.30;99.90;;;;;;4980826;28;20052;-77
2023/01/28 06:35:43;;;;;;;19.17;9.13;;;0.30;99.90;;;;;;4961748;28;20042;-76
2023/01/28 06:38:10;;;;;;;17.58;9.15;;;0.30;99.90;;;;;;4958113;28;20113;-77
2023/01/28 06:40:36;;;;;;;17.98;8.77;;;0.30;99.90;;;;;;4975437;28;20022;-76
2023/01/28 06:43:02;;;;;;;15.48;8.07;;;0.30;99.90;;;;;;4975904;28;20019;-77
2023/01/28 06:45:28;;;;;;;16.60;8.30;;;0.30;99.90;;;;;;4948522;28;20027;-77
2023/01/28 06:47:54;;;;;;;17.58;9.18;;;0.20;99.90;;;;;;4958870;28;20061;-77
2023/01/28 06:50:19;;;;;;;19.35;9.25;;;0.20;99.90;;;;;;4976143;28;20027;-77
2023/01/28 06:52:45;;;;;;;19.85;9.30;;;0.20;99.90;;;;;;4958069;28;20158;-76
2023/01/28 06:55:11;;;;;;;21.08;10.43;;;0.20;99.90;;;;;;4973496;28;20042;-76
2023/01/28 06:57:38;;;;;;;18.50;9.55;;;0.20;99.90;;;;;;4974191;28;20503;-76
2023/01/28 07:00:06;;;;;;;21.35;9.77;;;0.20;99.90;;;;;;4994128;28;20490;-75
2023/01/28 07:02:31;;;;;;;18.63;9.50;;;0.20;99.90;;;;;;4995344;28;20019;-77
2023/01/28 07:04:57;;;;;;;18.25;9.60;;;0.20;99.90;;;;;;4958743;28;20030;-76
2023/01/28 07:07:22;;;;;;;19.75;9.60;;;0.20;99.90;;;;;;4970404;28;20038;-76
2023/01/28 07:09:48;;;;;;;21.08;9.25;;;0.20;99.90;;;;;;4958626;28;20043;-76
2023/01/28 07:12:14;;;;;;;21.60;9.77;;;0.20;99.90;;;;;;4972215;28;20272;-75
2023/01/28 07:14:40;;;;;;;20.00;9.95;;;0.20;99.90;;;;;;4976115;28;20038;-76
2023/01/28 07:17:05;;;;;;;17.83;9.75;;;0.20;99.90;;;;;;4954361;28;20030;-76
2023/01/28 07:19:31;;;;;;;20.27;9.82;;;0.20;99.90;;;;;;4956070;28;20027;-74
2023/01/28 07:21:59;;;;;;;19.13;9.25;;;0.20;99.90;;;;;;4971135;28;20042;-75
2023/01/28 07:24:25;;;;;;;19.45;9.57;;;0.20;99.90;;;;;;4974387;28;20073;-76
2023/01/28 07:26:51;;;;;;;17.60;9.18;;;0.20;99.90;;;;;;4973372;28;20039;-75
2023/01/28 07:29:17;;;;;;;21.48;10.55;;;0.20;99.90;;;;;;4956261;28;20026;-76
2023/01/28 07:31:42;;;;;;;18.90;9.55;;;0.20;99.90;;;;;;4975497;28;20077;-76
2023/01/28 07:34:08;;;;;;;17.63;9.60;;;0.10;99.90;;;;;;4972033;28;20552;-76
2023/01/28 07:36:34;;;;;;;18.60;8.52;;;0.20;99.90;;;;;;4971515;28;20031;-76
2023/01/28 07:39:00;;;;;;;15.02;7.82;;;0.20;99.90;;;;;;4971863;28;20102;-76
2023/01/28 07:41:26;;;;;;;15.85;8.82;;;0.20;99.90;;;;;;4971599;28;20097;-76
2023/01/28 07:43:52;;;;;;;15.40;8.38;;;0.20;99.90;;;;;;4966724;28;20027;-76
2023/01/28 07:46:18;;;;;;;15.98;8.85;;;0.20;99.90;;;;;;4969632;28;20602;-75
2023/01/28 07:48:44;;;;;;;19.17;9.55;;;0.20;99.90;;;;;;4972811;28;20049;-76
2023/01/28 07:51:10;;;;;;;16.13;8.52;;;0.30;99.90;;;;;;4974677;28;20027;-77
2023/01/28 07:53:36;;;;;;;15.93;8.07;;;0.30;99.90;;;;;;4980374;28;20384;-76
2023/01/28 07:56:02;;;;;;;16.50;8.55;;;0.30;99.90;;;;;;4972626;28;20031;-75
2023/01/28 07:58:27;;;;;;;20.55;9.60;;;0.30;99.90;;;;;;4972397;28;20026;-75
2023/01/28 08:00:57;;;;;;;17.52;9.00;;;0.30;99.90;;;;;;4980019;28;20176;-76
2023/01/28 08:03:23;;;;;;;18.00;8.88;;;0.30;99.90;;;;;;4976387;28;20030;-75
2023/01/28 08:05:52;;;;;;;21.73;8.32;;;0.40;99.90;;;;;;4981652;28;20073;-75
2023/01/28 08:08:17;;;;;;;16.70;8.05;;;0.30;99.90;;;;;;4975645;28;20543;-76
2023/01/28 08:10:43;;;;;;;16.98;8.52;;;0.30;99.90;;;;;;4958153;28;20058;-76
2023/01/28 08:13:11;;;;;;;17.35;9.25;;;0.30;99.90;;;;;;4981362;28;20057;-77
2023/01/28 08:15:37;;;;;;;16.30;8.95;;;0.40;99.90;;;;;;4979290;28;20088;-76
2023/01/28 08:18:05;;;;;;;19.48;8.50;;;0.40;99.90;;;;;;4981672;28;20030;-76
2023/01/28 08:20:30;;;;;;;20.02;10.07;;;0.40;99.90;;;;;;4976684;28;20027;-76
2023/01/28 08:23:16;;;;;;;16.50;8.27;;;0.40;99.90;;;;;;4978758;28;20046;-76
2023/01/28 08:25:42;;;;;;;16.58;8.60;;;0.40;99.90;;;;;;4976824;28;20082;-76
2023/01/28 08:28:08;;;;;;;19.10;9.63;;;0.40;99.90;;;;;;4975735;28;20491;-75
2023/01/28 08:30:36;;;;;;;17.85;8.63;;;0.40;99.90;;;;;;4962179;28;20415;-76
2023/01/28 08:33:02;;;;;;;15.57;7.95;;;0.40;99.90;;;;;;4966730;28;20026;-76
2023/01/28 08:35:28;;;;;;;18.10;8.98;;;0.40;99.90;;;;;;4974015;28;20027;-76
2023/01/28 08:37:54;;;;;;;17.27;8.80;;;0.40;99.90;;;;;;4973328;28;20031;-76
2023/01/28 08:40:20;;;;;;;16.70;8.23;;;0.40;99.90;;;;;;4972547;28;20476;-76
2023/01/28 08:42:48;;;;;;;15.68;8.88;;;0.50;99.90;;;;;;4975219;28;20451;-76
2023/01/28 08:45:14;;;;;;;15.98;8.57;;;0.40;99.90;;;;;;4965939;28;20030;-76
2023/01/28 08:47:49;;;;;;;18.65;9.10;;;0.40;99.90;;;;;;4976409;28;20049;-76
2023/01/28 08:50:16;;;;;;;16.95;8.95;;;0.50;99.90;;;;;;4972367;28;20039;-76
2023/01/28 08:52:43;;;;;;;18.80;9.65;;;0.50;99.90;;;;;;4974780;28;20031;-76
2023/01/28 08:55:10;;;;;;;16.63;9.55;;;0.50;99.90;;;;;;4979754;28;20077;-76
2023/01/28 08:57:36;;;;;;;18.60;9.63;;;0.50;99.90;;;;;;4975663;28;20053;-74
2023/01/28 09:00:02;;;;;;;19.70;9.65;;;0.50;99.90;;;;;;4958438;28;20103;-75
2023/01/28 09:02:28;;;;;;;18.05;8.90;;;0.50;99.90;;;;;;4976374;28;20468;-75
2023/01/28 09:04:53;;;;;;;16.17;8.65;;;0.50;99.90;;;;;;4958804;28;20023;-75
2023/01/28 09:07:19;;;;;;;17.48;8.23;;;0.50;99.90;;;;;;4976880;28;20053;-75
2023/01/28 09:09:45;;;;;;;18.80;8.63;;;0.50;99.90;;;;;;4959241;28;20138;-74
2023/01/28 09:12:10;;;;;;;18.45;8.43;;;0.60;99.90;;;;;;4961134;28;20391;-75
2023/01/28 09:14:36;;;;;;;21.25;9.52;;;0.60;99.90;;;;;;4976589;28;20038;-74
2023/01/28 09:17:03;;;;;;;18.73;9.50;;;0.60;99.90;;;;;;4978670;28;20026;-75
2023/01/28 09:19:29;;;;;;;18.92;9.43;;;0.60;99.90;;;;;;4974283;28;20541;-73
2023/01/28 09:21:55;;;;;;;18.52;9.10;;;0.60;99.90;;;;;;4975015;28;20042;-74
2023/01/28 09:24:21;;;;;;;19.25;9.48;;;0.60;99.90;;;;;;4976661;28;20101;-74
2023/01/28 09:26:50;;;;;;;18.00;9.13;;;0.60;99.90;;;;;;4977788;28;20113;-74
2023/01/28 09:29:16;;;;;;;18.88;9.07;;;0.70;99.90;;;;;;4977554;28;20060;-74
2023/01/28 09:31:42;;;;;;;19.83;9.48;;;0.70;99.90;;;;;;4986570;28;20075;-74
2023/01/28 09:34:08;;;;;;;18.85;10.85;;;0.70;99.90;;;;;;4978584;28;20027;-73
2023/01/28 09:36:34;;;;;;;18.77;9.18;;;0.70;99.90;;;;;;4985933;28;20070;-73
2023/01/28 09:39:00;;;;;;;18.85;10.07;;;0.70;99.90;;;;;;4978514;28;20734;-74
2023/01/28 09:41:29;;;;;;;19.50;9.82;;;0.70;99.90;;;;;;4970035;28;20027;-73
2023/01/28 09:44:21;;;;;;;18.80;9.45;;;0.70;99.90;;;;;;4956209;29;20023;-73
2023/01/28 09:46:47;;;;;;;17.67;8.35;;;0.70;99.90;;;;;;4964442;28;20030;-74
2023/01/28 09:49:29;;;;;;;19.40;9.40;;;0.70;99.90;;;;;;4954623;29;20030;-74
2023/01/28 09:51:55;;;;;;;19.63;8.88;;;0.70;99.90;;;;;;4967621;28;20031;-73
2023/01/28 09:54:48;;;;;;;21.60;11.02;;;0.70;99.90;;;;;;4983214;28;20085;-73
2023/01/28 09:57:22;;;;;;;19.60;9.13;;;0.70;99.90;;;;;;4955376;28;20159;-74
2023/01/28 09:59:48;;;;;;;;;;;0.70;99.90;;;;;;4938445;29;20023;-73
2023/01/28 10:02:30;;;;;;;18.85;9.73;;;0.70;99.90;;;;;;4937704;29;19906;-73
2023/01/28 10:05:05;;;;;;;16.58;8.30;;;0.70;99.90;;;;;;4955083;29;20027;-73
2023/01/28 10:07:41;;;;;;;17.80;9.75;;;0.70;99.90;;;;;;4955470;28;20027;-75
2023/01/28 10:10:28;;;;;;;18.42;10.00;;;0.80;99.90;;;;;;4979197;28;20022;-74
2023/01/28 10:13:28;;;;;;;18.42;10.63;;;0.80;99.90;;;;;;4974174;28;20027;-73
2023/01/28 10:16:10;;;;;;;17.92;9.02;;;0.80;99.90;;;;;;4976684;28;20058;-73
2023/01/28 10:18:57;;;;;;;18.13;9.40;;;0.90;99.90;;;;;;4993264;28;20033;-73
2023/01/28 10:21:33;;;;;;;19.75;10.18;;;0.90;99.90;;;;;;4973867;28;20109;-74
2023/01/28 10:24:33;;;;;;;35.63;15.68;;;0.90;99.90;;;;;;4957237;28;20042;-74
2023/01/28 10:26:59;;;;;;;21.92;9.90;;;1.00;99.90;;;;;;4947368;28;20052;-74
2023/01/28 10:29:32;;;;;;;24.40;11.88;;;1.00;99.90;;;;;;4973624;28;20035;-74
2023/01/28 10:32:29;;;;;;;23.10;10.75;;;1.00;99.90;;;;;;4964938;28;20034;-74
2023/01/28 10:34:58;;;;;;;19.13;8.95;;;1.00;99.90;;;;;;4977711;28;20033;-74
2023/01/28 10:37:24;;;;;;;17.90;9.23;;;1.00;99.90;;;;;;4972986;28;20031;-74
2023/01/28 10:39:55;;;;;;;23.38;9.85;;;1.00;99.90;;;;;;4977246;28;20035;-75
2023/01/28 10:42:32;;;;;;;18.65;9.52;;;1.00;99.90;;;;;;4978090;28;20510;-74
2023/01/28 10:45:19;;;;;;;17.88;9.60;;;1.00;99.90;;;;;;4975702;28;20019;-74
2023/01/28 10:48:12;;;;;;;18.38;10.18;;;1.00;99.90;;;;;;4982235;28;20101;-74
2023/01/28 10:50:50;;;;;;;18.02;9.15;;;1.10;99.90;;;;;;4988906;28;20037;-74
2023/01/28 10:53:15;;;;;;;20.27;9.73;;;1.20;99.90;;;;;;4937377;29;20031;-74
2023/01/28 10:55:44;;;;;;;19.55;10.00;;;1.10;99.90;;;;;;4974987;28;20045;-75
2023/01/28 10:58:21;;;;;;;20.05;9.77;;;1.20;99.90;;;;;;4962904;28;20031;-74
2023/01/28 11:00:53;;;;;;;18.83;10.02;;;1.20;99.90;;;;;;4966552;28;20114;-74
2023/01/28 11:03:20;;;;;;;18.48;8.82;;;1.20;99.90;;;;;;4974766;28;20022;-74
2023/01/28 11:05:53;;;;;;;21.42;11.43;;;1.30;99.90;;;;;;4959672;28;20019;-74
2023/01/28 11:08:24;;;;;;;20.60;11.13;;;1.30;99.90;;;;;;4971718;28;20042;-76
2023/01/28 11:10:50;;;;;;;16.70;8.20;;;1.30;99.90;;;;;;4971591;28;20027;-74
2023/01/28 11:13:24;;;;;;;16.73;8.93;;;1.40;99.90;;;;;;4961982;28;20030;-74
2023/01/28 11:15:55;;;;;;;21.25;10.25;;;1.50;99.90;;;;;;4990243;28;20034;-74
2023/01/28 11:18:25;;;;;;;41.30;15.18;;;1.50;99.90;;;;;;4985156;28;20042;-74
2023/01/28 11:21:06;;;;;;;35.63;14.18;;;1.50;99.90;;;;;;4967656;28;20023;-73
2023/01/28 11:23:38;;;;;;;47.40;17.67;;;1.60;99.90;;;;;;4949513;28;20022;-74
2023/01/28 11:26:19;;;;;;;25.23;12.18;;;1.60;99.90;;;;;;4974906;28;20023;-74
2023/01/28 11:28:45;;;;;;;23.80;11.43;;;1.60;99.90;;;;;;4979081;28;20042;-74
2023/01/28 11:31:16;;;;;;;19.40;9.98;;;1.70;99.90;;;;;;4969131;28;20027;-73
2023/01/28 11:33:56;;;;;;;17.95;8.93;;;1.70;99.90;;;;;;4988936;28;20087;-73
2023/01/28 11:36:29;;;;;;;16.35;8.93;;;1.70;99.90;;;;;;4971416;28;20049;-73
2023/01/28 11:38:56;;;;;;;22.88;10.38;;;1.70;99.90;;;;;;4983325;28;20043;-73
2023/01/28 11:41:29;;;;;;;14.25;8.65;;;1.80;99.90;;;;;;4983896;28;20098;-74
2023/01/28 11:43:57;;;;;;;14.10;7.57;;;1.70;99.90;;;;;;4978183;28;20050;-74
2023/01/28 11:46:46;;;;;;;14.20;8.38;;;1.70;99.90;;;;;;4966183;28;20495;-74
2023/01/28 11:49:35;;;;;;;15.32;7.85;;;1.70;99.90;;;;;;4962722;28;20078;-74
2023/01/28 11:52:15;;;;;;;14.05;7.47;;;1.70;99.90;;;;;;4974694;28;20027;-74
2023/01/28 11:54:56;;;;;;;13.45;7.72;;;1.70;99.90;;;;;;4983638;28;20050;-74
2023/01/28 11:57:29;;;;;;;17.67;8.45;;;1.60;99.90;;;;;;4983465;28;20041;-74
2023/01/28 11:59:55;;;;;;;15.60;8.52;;;1.70;99.90;;;;;;4964802;28;20080;-74
2023/01/28 12:02:29;;;;;;;16.73;7.93;;;1.70;99.90;;;;;;4969620;28;20475;-73
2023/01/28 12:05:23;;;;;;;16.55;8.05;;;1.70;99.90;;;;;;4962897;28;20027;-74
2023/01/28 12:08:03;;;;;;;17.48;8.05;;;1.70;99.90;;;;;;4977253;28;20126;-74
2023/01/28 12:10:57;;;;;;;17.45;8.27;;;1.70;99.90;;;;;;4989425;28;20033;-74
2023/01/28 12:13:38;;;;;;;16.38;9.02;;;1.70;99.90;;;;;;4987235;28;20089;-74
2023/01/28 12:16:22;;;;;;;14.70;7.53;;;1.70;99.90;;;;;;4971447;28;21592;-73
2023/01/28 12:19:10;;;;;;;14.18;7.70;;;1.70;99.90;;;;;;4959038;28;20023;-74
2023/01/28 12:22:00;;;;;;;17.33;8.80;;;1.70;99.90;;;;;;4972743;28;20442;-75
2023/01/28 12:24:35;;;;;;;15.98;8.05;;;1.60;99.90;;;;;;4995793;28;20430;-75
2023/01/28 12:27:07;;;;;;;15.90;8.15;;;1.60;99.90;;;;;;4994132;28;20030;-75
2023/01/28 12:29:48;;;;;;;16.30;8.63;;;1.70;99.90;;;;;;4995808;28;20101;-75
2023/01/28 12:32:39;;;;;;;18.15;9.00;;;1.70;99.90;;;;;;4975649;28;20031;-75
2023/01/28 12:35:31;;;;;;;18.20;8.80;;;1.60;99.90;;;;;;4959173;28;20439;-76
2023/01/28 12:38:30;;;;;;;17.92;9.05;;;1.60;99.90;;;;;;4958603;28;20031;-75
2023/01/28 12:41:17;;;;;;;20.98;10.25;;;1.60;99.90;;;;;;4958889;28;20518;-76
2023/01/28 12:44:02;;;;;;;16.33;8.48;;;1.60;99.90;;;;;;4959236;28;20542;-76
2023/01/28 12:46:46;;;;;;;22.67;9.93;;;1.60;99.90;;;;;;4976309;28;20085;-75
2023/01/28 12:49:14;;;;;;;19.73;10.45;;;1.60;99.90;;;;;;4975878;28;20042;-74
2023/01/28 12:52:02;;;;;;;21.88;10.43;;;1.50;99.90;;;;;;4976230;28;20388;-74
2023/01/28 12:54:51;;;;;;;20.48;10.88;;;1.40;99.90;;;;;;4965543;28;20053;-74
2023/01/28 12:57:29;;;;;;;22.13;10.77;;;1.50;99.90;;;;;;4977958;28;20060;-74
2023/01/28 13:00:05;;;;;;;18.48;9.05;;;1.40;99.90;;;;;;4995770;28;20419;-74
2023/01/28 13:02:39;;;;;;;30.50;12.25;;;1.40;99.90;;;;;;4989209;28;20022;-74
2023/01/28 13:05:16;;;;;;;26.42;10.50;;;1.40;99.90;;;;;;4961486;28;20026;-75
2023/01/28 13:07:58;;;;;;;24.48;10.55;;;1.40;99.90;;;;;;4950291;28;20050;-75
2023/01/28 13:10:42;;;;;;;18.58;9.98;;;1.30;99.90;;;;;;4959743;28;20026;-75
2023/01/28 13:13:31;;;;;;;26.35;10.75;;;1.30;99.90;;;;;;4970553;28;20044;-75
2023/01/28 13:15:59;;;;;;;26.77;12.02;;;1.40;99.90;;;;;;4964680;28;20026;-74
2023/01/28 13:18:44;;;;;;;23.92;11.15;;;1.40;99.90;;;;;;4980424;28;20034;-76
2023/01/28 13:21:29;;;;;;;24.75;11.18;;;1.40;99.90;;;;;;4977715;28;20361;-75
2023/01/28 13:24:01;;;;;;;23.45;11.88;;;1.40;99.90;;;;;;4980131;28;20074;-74
2023/01/28 13:26:41;;;;;;;22.40;10.77;;;1.40;99.90;;;;;;4992486;28;20069;-74
2023/01/28 13:29:23;;;;;;;22.83;11.55;;;1.50;99.90;;;;;;4960675;28;20130;-74
2023/01/28 13:31:55;;;;;;;24.95;12.07;;;1.50;99.90;;;;;;4978188;28;20502;-74